PWSweather.com
Personal Weather Stations
Station Observations
KMAMEDFI2
Medfield, MA 02052

Medfield, MA 02052

Lat: 42.1900822, Lon: -71.3296889

Elevation: 138

Station Type: Rainwise WS MK-III

http://www.medfieldweather.com

High Low Average
Temperature 74.3°F23.5°C 53.2°F11.8°C 62.4°F16.9°C
Dew Point 62.4°F16.9°C 52.3°F11.3°C 57.8°F14.3°C
Winds 11.5 mph 18.5 kmh Calm Calm 3.0 mph SSW4.8 kmh SSW
Wind Gusts 15.0 mph24.1 kmh -- 4.0 mph6.4 kmh
Humidity 98% 52% 87%
Pressure 30.17 in1021.7 mb 29.99 in1015.6 mb -
Precipitation 0.48 in12.2 mm - -
Hour Temp Dew Point Humidity Winds Wind Gusts Pressure Precip Precip Rate Daily Precip Total
12:00 AM 56.9°F13.8°C 56.1°F13.4°C 97% 4.6 mph SW7.4 kmh SW 5.8 mph9.3 kmh 30.17 in1021.7 mb - 0.07 in1.8 mm 0.07 in1.8 mm
12:10 AM 56.9°F13.8°C 56.1°F13.4°C 97% 2.3 mph SSW3.7 kmh SSW 3.5 mph5.6 kmh 30.16 in1021.3 mb - 0.08 in2.0 mm 0.09 in2.3 mm
12:20 AM 57.1°F13.9°C 56.3°F13.5°C 97% Calm Calm 2.3 mph3.7 kmh 30.16 in1021.3 mb - 0.07 in1.8 mm 0.10 in2.5 mm
12:30 AM 57.1°F13.9°C 56.3°F13.5°C 97% 3.5 mph S5.6 kmh S 2.3 mph3.7 kmh 30.15 in1021.0 mb - 0.07 in1.8 mm 0.11 in2.8 mm
12:40 AM 57.0°F13.9°C 56.2°F13.4°C 97% 2.3 mph S3.7 kmh S 2.3 mph3.7 kmh 30.15 in1021.0 mb - 0.07 in1.8 mm 0.12 in3.0 mm
12:50 AM 57.1°F13.9°C 56.3°F13.5°C 97% 4.6 mph SSW7.4 kmh SSW 8.1 mph13.0 kmh 30.14 in1020.7 mb - 0.06 in1.5 mm 0.12 in3.0 mm
01:00 AM 57.3°F14.1°C 56.5°F13.6°C 97% 3.5 mph NW5.6 kmh NW 3.5 mph5.6 kmh 30.13 in1020.3 mb - 0.05 in1.3 mm 0.12 in3.0 mm
01:10 AM 57.5°F14.2°C 56.7°F13.7°C 97% 3.5 mph SSW5.6 kmh SSW 2.3 mph3.7 kmh 30.13 in1020.3 mb - 0.03 in0.8 mm 0.12 in3.0 mm
01:20 AM 57.7°F14.3°C 56.9°F13.8°C 97% 3.5 mph S5.6 kmh S 2.3 mph3.7 kmh 30.12 in1020.0 mb - 0.03 in0.8 mm 0.13 in3.3 mm
01:30 AM 57.9°F14.4°C 57.1°F13.9°C 97% 4.6 mph S7.4 kmh S 9.2 mph14.8 kmh 30.12 in1020.0 mb - 0.02 in0.5 mm 0.13 in3.3 mm
01:40 AM 57.9°F14.4°C 57.1°F13.9°C 97% 3.5 mph S5.6 kmh S 5.8 mph9.3 kmh 30.11 in1019.6 mb - 0.03 in0.8 mm 0.14 in3.6 mm
01:50 AM 58.1°F14.5°C 57.5°F14.2°C 98% 3.5 mph S5.6 kmh S 6.9 mph11.1 kmh 30.11 in1019.6 mb - 0.02 in0.5 mm 0.14 in3.6 mm
02:00 AM 58.2°F14.6°C 57.6°F14.2°C 98% 3.5 mph NNW5.6 kmh NNW 5.8 mph9.3 kmh 30.11 in1019.6 mb - 0.03 in0.8 mm 0.15 in3.8 mm
02:10 AM 58.3°F14.6°C 57.7°F14.3°C 98% 11.5 mph W18.5 kmh W 15.0 mph24.1 kmh 30.12 in1020.0 mb - 0.04 in1.0 mm 0.16 in4.1 mm
02:20 AM 58.3°F14.6°C 57.7°F14.3°C 98% 3.5 mph S5.6 kmh S 5.8 mph9.3 kmh 30.11 in1019.6 mb - 0.04 in1.0 mm 0.17 in4.3 mm
02:30 AM 58.2°F14.6°C 57.6°F14.2°C 98% 3.5 mph S5.6 kmh S 5.8 mph9.3 kmh 30.12 in1020.0 mb - 0.05 in1.3 mm 0.18 in4.6 mm
02:40 AM 58.2°F14.6°C 57.6°F14.2°C 98% 3.5 mph SW5.6 kmh SW 5.8 mph9.3 kmh 30.12 in1020.0 mb - 0.04 in1.0 mm 0.18 in4.6 mm
02:50 AM 58.3°F14.6°C 57.7°F14.3°C 98% 1.2 mph SSE1.9 kmh SSE 6.9 mph11.1 kmh 30.12 in1020.0 mb - 0.05 in1.3 mm 0.19 in4.8 mm
03:00 AM 58.2°F14.6°C 57.6°F14.2°C 98% 2.3 mph SE3.7 kmh SE 2.3 mph3.7 kmh 30.11 in1019.6 mb - 0.06 in1.5 mm 0.21 in5.3 mm
03:10 AM 58.2°F14.6°C 57.6°F14.2°C 98% 4.6 mph S7.4 kmh S 10.4 mph16.7 kmh 30.11 in1019.6 mb - 0.05 in1.3 mm 0.21 in5.3 mm
03:20 AM 58.2°F14.6°C 57.6°F14.2°C 98% 2.3 mph SE3.7 kmh SE 5.8 mph9.3 kmh 30.11 in1019.6 mb - 0.05 in1.3 mm 0.22 in5.6 mm
03:30 AM 58.2°F14.6°C 57.6°F14.2°C 98% 5.8 mph W9.3 kmh W 8.1 mph13.0 kmh 30.12 in1020.0 mb - 0.05 in1.3 mm 0.23 in5.8 mm
03:40 AM 58.2°F14.6°C 57.6°F14.2°C 98% 4.6 mph S7.4 kmh S 3.5 mph5.6 kmh 30.12 in1020.0 mb - 0.07 in1.8 mm 0.25 in6.4 mm
03:50 AM 58.0°F14.4°C 57.4°F14.1°C 98% 4.6 mph SW7.4 kmh SW 6.9 mph11.1 kmh 30.12 in1020.0 mb - 0.08 in2.0 mm 0.27 in6.9 mm
04:00 AM 57.9°F14.4°C 57.1°F13.9°C 97% 3.5 mph SW5.6 kmh SW 3.5 mph5.6 kmh 30.12 in1020.0 mb - 0.09 in2.3 mm 0.29 in7.4 mm
04:10 AM 57.9°F14.4°C 57.1°F13.9°C 97% 4.6 mph S7.4 kmh S 5.8 mph9.3 kmh 30.12 in1020.0 mb - 0.10 in2.5 mm 0.31 in7.9 mm
04:20 AM 57.9°F14.4°C 57.1°F13.9°C 97% 3.5 mph SE5.6 kmh SE 5.8 mph9.3 kmh 30.12 in1020.0 mb - 0.12 in3.0 mm 0.34 in8.6 mm
04:30 AM 57.9°F14.4°C 57.1°F13.9°C 97% 4.6 mph S7.4 kmh S 5.8 mph9.3 kmh 30.11 in1019.6 mb - 0.14 in3.6 mm 0.37 in9.4 mm
04:40 AM 57.9°F14.4°C 57.1°F13.9°C 97% 3.5 mph SW5.6 kmh SW 6.9 mph11.1 kmh 30.11 in1019.6 mb - 0.14 in3.6 mm 0.39 in9.9 mm
04:50 AM 57.9°F14.4°C 57.1°F13.9°C 97% 3.5 mph SSE5.6 kmh SSE 5.8 mph9.3 kmh 30.11 in1019.6 mb - 0.14 in3.6 mm 0.41 in10.4 mm
05:00 AM 57.9°F14.4°C 57.1°F13.9°C 97% 1.2 mph S1.9 kmh S 8.1 mph13.0 kmh 30.11 in1019.6 mb - 0.13 in3.3 mm 0.42 in10.7 mm
05:10 AM 57.9°F14.4°C 57.1°F13.9°C 97% 4.6 mph S7.4 kmh S 9.2 mph14.8 kmh 30.11 in1019.6 mb - 0.11 in2.8 mm 0.42 in10.7 mm
05:20 AM 58.0°F14.4°C 57.5°F14.2°C 98% 3.5 mph ESE5.6 kmh ESE 5.8 mph9.3 kmh 30.11 in1019.6 mb - 0.09 in2.3 mm 0.43 in10.9 mm
05:30 AM 58.1°F14.5°C 57.5°F14.2°C 98% 2.3 mph SSE3.7 kmh SSE 5.8 mph9.3 kmh 30.12 in1020.0 mb - 0.06 in1.5 mm 0.43 in10.9 mm
05:40 AM 58.2°F14.6°C 57.6°F14.2°C 98% 4.6 mph S7.4 kmh S 15.0 mph24.1 kmh 30.12 in1020.0 mb - 0.04 in1.0 mm 0.43 in10.9 mm
05:50 AM 58.2°F14.6°C 57.6°F14.2°C 98% 2.3 mph SSE3.7 kmh SSE 5.8 mph9.3 kmh 30.12 in1020.0 mb - 0.02 in0.5 mm 0.43 in10.9 mm
06:00 AM 58.0°F14.4°C 57.5°F14.2°C 98% 3.5 mph SE5.6 kmh SE 2.3 mph3.7 kmh 30.12 in1020.0 mb - 0.02 in0.5 mm 0.44 in11.2 mm
06:10 AM 57.9°F14.4°C 57.1°F13.9°C 97% 5.8 mph SSE9.3 kmh SSE 8.1 mph13.0 kmh 30.12 in1020.0 mb - 0.02 in0.5 mm 0.44 in11.2 mm
06:20 AM 57.9°F14.4°C 57.1°F13.9°C 97% 3.5 mph SSE5.6 kmh SSE 5.8 mph9.3 kmh 30.13 in1020.3 mb - 0.01 in0.3 mm 0.44 in11.2 mm
06:30 AM 57.9°F14.4°C 57.1°F13.9°C 97% 3.5 mph SSW5.6 kmh SSW 2.3 mph3.7 kmh 30.13 in1020.3 mb - 0.01 in0.3 mm 0.44 in11.2 mm
06:40 AM 57.9°F14.4°C 57.1°F13.9°C 97% 2.3 mph S3.7 kmh S 9.2 mph14.8 kmh 30.13 in1020.3 mb - 0.02 in0.5 mm 0.45 in11.4 mm
06:50 AM 57.8°F14.3°C 57.0°F13.9°C 97% 2.3 mph SSW3.7 kmh SSW 8.1 mph13.0 kmh 30.13 in1020.3 mb - 0.03 in0.8 mm 0.46 in11.7 mm
07:00 AM 57.8°F14.3°C 57.0°F13.9°C 97% 1.2 mph S1.9 kmh S 2.3 mph3.7 kmh 30.13 in1020.3 mb - 0.02 in0.5 mm 0.46 in11.7 mm
07:10 AM 57.9°F14.4°C 57.1°F13.9°C 97% 2.3 mph SSW3.7 kmh SSW 2.3 mph3.7 kmh 30.14 in1020.7 mb - 0.03 in0.8 mm 0.47 in11.9 mm
07:20 AM 58.0°F14.4°C 57.4°F14.1°C 98% 2.3 mph E3.7 kmh E 2.3 mph3.7 kmh 30.13 in1020.3 mb - 0.03 in0.8 mm 0.47 in11.9 mm
07:30 AM 58.1°F14.5°C 57.5°F14.2°C 98% 1.2 mph SE1.9 kmh SE 2.3 mph3.7 kmh 30.13 in1020.3 mb - 0.03 in0.8 mm 0.47 in11.9 mm
07:40 AM 57.9°F14.4°C 57.1°F13.9°C 97% 2.3 mph WSW3.7 kmh WSW 2.3 mph3.7 kmh 30.13 in1020.3 mb - 0.02 in0.5 mm 0.47 in11.9 mm
07:50 AM 58.1°F14.5°C 57.5°F14.2°C 98% 1.2 mph SSE1.9 kmh SSE 2.3 mph3.7 kmh 30.12 in1020.0 mb - 0.02 in0.5 mm 0.48 in12.2 mm
08:00 AM 58.4°F14.7°C 57.8°F14.3°C 98% 1.2 mph SSW1.9 kmh SSW 2.3 mph3.7 kmh 30.12 in1020.0 mb - 0.02 in0.5 mm 0.48 in12.2 mm
08:10 AM 58.6°F14.8°C 58.0°F14.4°C 98% 2.3 mph S3.7 kmh S 2.3 mph3.7 kmh 30.13 in1020.3 mb - 0.01 in0.3 mm 0.48 in12.2 mm
08:20 AM 58.5°F14.7°C 57.9°F14.4°C 98% 2.3 mph S3.7 kmh S 2.3 mph3.7 kmh 30.13 in1020.3 mb - 0.01 in0.3 mm 0.48 in12.2 mm
08:30 AM 58.6°F14.8°C 58.0°F14.4°C 98% 1.2 mph SE1.9 kmh SE 3.5 mph5.6 kmh 30.13 in1020.3 mb - 0.01 in0.3 mm 0.48 in12.2 mm
08:40 AM 58.9°F14.9°C 58.3°F14.6°C 98% 3.5 mph SE5.6 kmh SE 3.5 mph5.6 kmh 30.13 in1020.3 mb - 0.01 in0.3 mm 0.48 in12.2 mm
08:50 AM 58.9°F14.9°C 58.3°F14.6°C 98% 1.2 mph SE1.9 kmh SE 2.3 mph3.7 kmh 30.11 in1019.6 mb - 0.00 in0.0 mm 0.48 in12.2 mm
09:00 AM 59.2°F15.1°C 58.6°F14.8°C 98% 2.3 mph WNW3.7 kmh WNW 5.8 mph9.3 kmh 30.10 in1019.3 mb - 0.00 in0.0 mm 0.48 in12.2 mm
09:10 AM 59.7°F15.4°C 59.2°F15.1°C 98% Calm Calm 1.2 mph1.9 kmh 30.11 in1019.6 mb - 0.00 in0.0 mm 0.48 in12.2 mm
09:20 AM 59.8°F15.4°C 59.2°F15.1°C 98% 2.3 mph S3.7 kmh S 1.2 mph1.9 kmh 30.11 in1019.6 mb - 0.00 in0.0 mm 0.48 in12.2 mm
09:30 AM 59.9°F15.5°C 59.3°F15.2°C 98% Calm Calm 1.2 mph1.9 kmh 30.11 in1019.6 mb - 0.00 in0.0 mm 0.48 in12.2 mm
09:40 AM 60.3°F15.7°C 59.7°F15.4°C 98% 1.2 mph S1.9 kmh S 2.3 mph3.7 kmh 30.12 in1020.0 mb - 0.00 in0.0 mm 0.48 in12.2 mm
09:50 AM 60.6°F15.9°C 60.0°F15.6°C 98% 1.2 mph S1.9 kmh S 2.3 mph3.7 kmh 30.12 in1020.0 mb - 0.00 in0.0 mm 0.48 in12.2 mm
10:00 AM 60.9°F16.1°C 60.3°F15.7°C 98% 1.2 mph SSE1.9 kmh SSE 2.3 mph3.7 kmh 30.11 in1019.6 mb - 0.00 in0.0 mm 0.48 in12.2 mm
10:10 AM 61.1°F16.2°C 60.5°F15.8°C 98% 1.2 mph SSE1.9 kmh SSE 2.3 mph3.7 kmh 30.12 in1020.0 mb - 0.00 in0.0 mm 0.48 in12.2 mm
10:20 AM 61.4°F16.3°C 60.8°F16.0°C 98% 2.3 mph SE3.7 kmh SE 2.3 mph3.7 kmh 30.12 in1020.0 mb - 0.00 in0.0 mm 0.48 in12.2 mm
10:30 AM 61.7°F16.5°C 61.2°F16.2°C 98% 1.2 mph SE1.9 kmh SE 2.3 mph3.7 kmh 30.11 in1019.6 mb - 0.00 in0.0 mm 0.48 in12.2 mm
10:40 AM 61.7°F16.5°C 61.1°F16.2°C 98% 3.5 mph S5.6 kmh S 5.8 mph9.3 kmh 30.11 in1019.6 mb - 0.00 in0.0 mm 0.48 in12.2 mm
10:50 AM 62.0°F16.7°C 61.4°F16.3°C 98% 3.5 mph SSW5.6 kmh SSW 2.3 mph3.7 kmh 30.11 in1019.6 mb - 0.00 in0.0 mm 0.48 in12.2 mm
11:00 AM 62.3°F16.8°C 61.4°F16.3°C 97% 2.3 mph SSE3.7 kmh SSE 2.3 mph3.7 kmh 30.11 in1019.6 mb - 0.00 in0.0 mm 0.48 in12.2 mm
11:10 AM 62.2°F16.8°C 61.3°F16.3°C 97% 3.5 mph S5.6 kmh S 3.5 mph5.6 kmh 30.11 in1019.6 mb - 0.00 in0.0 mm 0.48 in12.2 mm
11:20 AM 62.4°F16.9°C 61.6°F16.4°C 97% 2.3 mph SSE3.7 kmh SSE 2.3 mph3.7 kmh 30.11 in1019.6 mb - 0.00 in0.0 mm 0.48 in12.2 mm
11:30 AM 62.9°F17.2°C 61.4°F16.3°C 95% 2.3 mph WSW3.7 kmh WSW 2.3 mph3.7 kmh 30.10 in1019.3 mb - 0.00 in0.0 mm 0.48 in12.2 mm
11:40 AM 63.5°F17.5°C 61.4°F16.3°C 93% 3.5 mph S5.6 kmh S 2.3 mph3.7 kmh 30.11 in1019.6 mb - 0.00 in0.0 mm 0.48 in12.2 mm
11:50 AM 64.1°F17.8°C 61.8°F16.6°C 92% 2.3 mph SSW3.7 kmh SSW 2.3 mph3.7 kmh 30.10 in1019.3 mb - 0.00 in0.0 mm 0.48 in12.2 mm
12:00 PM 65.2°F18.4°C 62.1°F16.7°C 90% 2.3 mph S3.7 kmh S 2.3 mph3.7 kmh 30.10 in1019.3 mb - 0.00 in0.0 mm 0.48 in12.2 mm
12:10 PM 66.7°F19.3°C 62.4°F16.9°C 86% 5.8 mph SW9.3 kmh SW 8.1 mph13.0 kmh 30.09 in1019.0 mb - 0.00 in0.0 mm 0.48 in12.2 mm
12:20 PM 67.3°F19.6°C 61.6°F16.4°C 82% 3.5 mph SE5.6 kmh SE 5.8 mph9.3 kmh 30.09 in1019.0 mb - 0.00 in0.0 mm 0.48 in12.2 mm
12:30 PM 68.4°F20.2°C 62.0°F16.7°C 80% 3.5 mph SSE5.6 kmh SSE 5.8 mph9.3 kmh 30.09 in1019.0 mb - 0.00 in0.0 mm 0.48 in12.2 mm
12:40 PM 68.9°F20.5°C 61.0°F16.1°C 76% 3.5 mph WSW5.6 kmh WSW 8.1 mph13.0 kmh 30.09 in1019.0 mb - 0.00 in0.0 mm 0.48 in12.2 mm
12:50 PM 69.6°F20.9°C 61.3°F16.3°C 75% 4.6 mph S7.4 kmh S 3.5 mph5.6 kmh 30.09 in1019.0 mb - 0.00 in0.0 mm 0.48 in12.2 mm
01:00 PM 69.8°F21.0°C 60.8°F16.0°C 73% 2.3 mph WSW3.7 kmh WSW 9.2 mph14.8 kmh 30.09 in1019.0 mb - 0.00 in0.0 mm 0.48 in12.2 mm
01:10 PM 70.6°F21.4°C 60.4°F15.8°C 70% 1.2 mph WSW1.9 kmh WSW 2.3 mph3.7 kmh 30.09 in1019.0 mb - 0.00 in0.0 mm 0.48 in12.2 mm
01:20 PM 71.6°F22.0°C 60.1°F15.6°C 67% 2.3 mph SSW3.7 kmh SSW 5.8 mph9.3 kmh 30.08 in1018.6 mb - 0.00 in0.0 mm 0.48 in12.2 mm
01:30 PM 71.8°F22.1°C 61.1°F16.2°C 69% 4.6 mph S7.4 kmh S 3.5 mph5.6 kmh 30.08 in1018.6 mb - 0.00 in0.0 mm 0.48 in12.2 mm
01:40 PM 71.9°F22.2°C 59.9°F15.5°C 66% 2.3 mph WSW3.7 kmh WSW 2.3 mph3.7 kmh 30.07 in1018.3 mb - 0.00 in0.0 mm 0.48 in12.2 mm
01:50 PM 72.3°F22.4°C 61.2°F16.2°C 68% 2.3 mph SSW3.7 kmh SSW 5.8 mph9.3 kmh 30.08 in1018.6 mb - 0.00 in0.0 mm 0.48 in12.2 mm
02:00 PM 73.2°F22.9°C 58.0°F14.4°C 59% 5.8 mph SE9.3 kmh SE 5.8 mph9.3 kmh 30.07 in1018.3 mb - 0.00 in0.0 mm 0.48 in12.2 mm
02:10 PM 73.4°F23.0°C 57.8°F14.3°C 58% 2.3 mph SE3.7 kmh SE 2.3 mph3.7 kmh 30.07 in1018.3 mb - 0.00 in0.0 mm 0.48 in12.2 mm
02:20 PM 73.7°F23.2°C 56.0°F13.3°C 54% 9.2 mph S14.8 kmh S 9.2 mph14.8 kmh 30.07 in1018.3 mb - 0.00 in0.0 mm 0.48 in12.2 mm
02:30 PM 72.9°F22.7°C 55.8°F13.2°C 55% 4.6 mph WSW7.4 kmh WSW 8.1 mph13.0 kmh 30.06 in1017.9 mb - 0.00 in0.0 mm 0.48 in12.2 mm
02:40 PM 73.8°F23.2°C 56.6°F13.7°C 55% 3.5 mph S5.6 kmh S 9.2 mph14.8 kmh 30.06 in1017.9 mb - 0.00 in0.0 mm 0.48 in12.2 mm
02:50 PM 74.3°F23.5°C 56.0°F13.3°C 53% 4.6 mph SE7.4 kmh SE 8.1 mph13.0 kmh 30.06 in1017.9 mb - 0.00 in0.0 mm 0.48 in12.2 mm
03:00 PM 74.2°F23.4°C 55.4°F13.0°C 52% 5.8 mph SW9.3 kmh SW 8.1 mph13.0 kmh 30.06 in1017.9 mb - 0.00 in0.0 mm 0.48 in12.2 mm
03:10 PM 73.9°F23.3°C 56.7°F13.7°C 55% 6.9 mph SW11.1 kmh SW 15.0 mph24.1 kmh 30.06 in1017.9 mb - 0.00 in0.0 mm 0.48 in12.2 mm
03:20 PM 74.3°F23.5°C 56.1°F13.4°C 53% 2.3 mph NNW3.7 kmh NNW 3.5 mph5.6 kmh 30.05 in1017.6 mb - 0.00 in0.0 mm 0.48 in12.2 mm
03:30 PM 74.2°F23.4°C 55.5°F13.1°C 52% 6.9 mph W11.1 kmh W 10.4 mph16.7 kmh 30.06 in1017.9 mb - 0.00 in0.0 mm 0.48 in12.2 mm
03:40 PM 73.9°F23.3°C 56.2°F13.4°C 54% 3.5 mph SW5.6 kmh SW 3.5 mph5.6 kmh 30.05 in1017.6 mb - 0.00 in0.0 mm 0.48 in12.2 mm
03:50 PM 73.3°F22.9°C 56.6°F13.7°C 56% 8.1 mph SW13.0 kmh SW 11.5 mph18.5 kmh 30.06 in1017.9 mb - 0.00 in0.0 mm 0.48 in12.2 mm
04:00 PM 73.9°F23.3°C 57.2°F14.0°C 56% 4.6 mph SW7.4 kmh SW 11.5 mph18.5 kmh 30.05 in1017.6 mb - 0.00 in0.0 mm 0.48 in12.2 mm
04:10 PM 73.3°F22.9°C 56.6°F13.7°C 56% 5.8 mph SSW9.3 kmh SSW 8.1 mph13.0 kmh 30.06 in1017.9 mb - 0.00 in0.0 mm 0.48 in12.2 mm
04:20 PM 72.5°F22.5°C 57.4°F14.1°C 59% 2.3 mph W3.7 kmh W 8.1 mph13.0 kmh 30.06 in1017.9 mb - 0.00 in0.0 mm 0.48 in12.2 mm
04:30 PM 71.6°F22.0°C 57.0°F13.9°C 60% 5.8 mph WSW9.3 kmh WSW 10.4 mph16.7 kmh 30.05 in1017.6 mb - 0.00 in0.0 mm 0.48 in12.2 mm
04:40 PM 70.9°F21.6°C 57.2°F14.0°C 62% 4.6 mph S7.4 kmh S 5.8 mph9.3 kmh 30.05 in1017.6 mb - 0.00 in0.0 mm 0.48 in12.2 mm
04:50 PM 70.6°F21.4°C 57.4°F14.1°C 63% 2.3 mph SW3.7 kmh SW 2.3 mph3.7 kmh 30.04 in1017.3 mb - 0.00 in0.0 mm 0.48 in12.2 mm
05:00 PM 69.9°F21.1°C 57.2°F14.0°C 64% 2.3 mph S3.7 kmh S 3.5 mph5.6 kmh 30.03 in1016.9 mb - 0.00 in0.0 mm 0.48 in12.2 mm
05:10 PM 69.4°F20.8°C 57.1°F13.9°C 65% 4.6 mph S7.4 kmh S 8.1 mph13.0 kmh 30.03 in1016.9 mb - 0.00 in0.0 mm 0.48 in12.2 mm
05:20 PM 68.9°F20.5°C 56.7°F13.7°C 65% 3.5 mph SSW5.6 kmh SSW 8.1 mph13.0 kmh 30.04 in1017.3 mb - 0.00 in0.0 mm 0.48 in12.2 mm
05:30 PM 68.6°F20.3°C 56.4°F13.6°C 65% 2.3 mph SSE3.7 kmh SSE 2.3 mph3.7 kmh 30.04 in1017.3 mb - 0.00 in0.0 mm 0.48 in12.2 mm
05:40 PM 68.1°F20.1°C 56.7°F13.7°C 67% 1.2 mph N1.9 kmh N 2.3 mph3.7 kmh 30.04 in1017.3 mb - 0.00 in0.0 mm 0.48 in12.2 mm
05:50 PM 67.6°F19.8°C 56.7°F13.7°C 68% 2.3 mph S3.7 kmh S 2.3 mph3.7 kmh 30.05 in1017.6 mb - 0.00 in0.0 mm 0.48 in12.2 mm
06:00 PM 67.2°F19.6°C 56.7°F13.7°C 69% 3.5 mph SW5.6 kmh SW 5.8 mph9.3 kmh 30.04 in1017.3 mb - 0.00 in0.0 mm 0.48 in12.2 mm
06:10 PM 66.7°F19.3°C 57.0°F13.9°C 71% 1.2 mph S1.9 kmh S 3.5 mph5.6 kmh 30.04 in1017.3 mb - 0.00 in0.0 mm 0.48 in12.2 mm
06:20 PM 66.4°F19.1°C 56.7°F13.7°C 71% 2.3 mph S3.7 kmh S 2.3 mph3.7 kmh 30.04 in1017.3 mb - 0.00 in0.0 mm 0.48 in12.2 mm
06:30 PM 66.1°F18.9°C 57.2°F14.0°C 73% 2.3 mph S3.7 kmh S 2.3 mph3.7 kmh 30.04 in1017.3 mb - 0.00 in0.0 mm 0.48 in12.2 mm
06:40 PM 65.6°F18.7°C 56.7°F13.7°C 73% 1.2 mph SSE1.9 kmh SSE -- 30.04 in1017.3 mb - 0.00 in0.0 mm 0.48 in12.2 mm
06:50 PM 65.1°F18.4°C 57.0°F13.9°C 75% 4.6 mph WSW7.4 kmh WSW 8.1 mph13.0 kmh 30.04 in1017.3 mb - 0.00 in0.0 mm 0.48 in12.2 mm
07:00 PM 64.9°F18.3°C 56.8°F13.8°C 75% 3.5 mph S5.6 kmh S 5.8 mph9.3 kmh 30.05 in1017.6 mb - 0.00 in0.0 mm 0.48 in12.2 mm
07:10 PM 64.5°F18.1°C 57.2°F14.0°C 77% 2.3 mph WSW3.7 kmh WSW 5.8 mph9.3 kmh 30.05 in1017.6 mb - 0.00 in0.0 mm 0.48 in12.2 mm
07:20 PM 64.2°F17.9°C 57.9°F14.4°C 80% 4.6 mph SW7.4 kmh SW 10.4 mph16.7 kmh 30.05 in1017.6 mb - 0.00 in0.0 mm 0.48 in12.2 mm
07:30 PM 63.9°F17.7°C 58.0°F14.4°C 81% 2.3 mph SSW3.7 kmh SSW 5.8 mph9.3 kmh 30.05 in1017.6 mb - 0.00 in0.0 mm 0.48 in12.2 mm
07:40 PM 63.6°F17.6°C 58.0°F14.4°C 82% 1.2 mph WSW1.9 kmh WSW 2.3 mph3.7 kmh 30.05 in1017.6 mb - 0.00 in0.0 mm 0.48 in12.2 mm
07:50 PM 63.3°F17.4°C 58.4°F14.7°C 84% 3.5 mph SW5.6 kmh SW 2.3 mph3.7 kmh 30.05 in1017.6 mb - 0.00 in0.0 mm 0.48 in12.2 mm
08:00 PM 63.0°F17.2°C 58.4°F14.7°C 85% 3.5 mph SW5.6 kmh SW 2.3 mph3.7 kmh 30.04 in1017.3 mb - 0.00 in0.0 mm 0.48 in12.2 mm
08:10 PM 62.7°F17.1°C 58.8°F14.9°C 87% 1.2 mph SW1.9 kmh SW 2.3 mph3.7 kmh 30.05 in1017.6 mb - 0.00 in0.0 mm 0.48 in12.2 mm
08:20 PM 62.3°F16.8°C 58.4°F14.7°C 87% 1.2 mph SSW1.9 kmh SSW 2.3 mph3.7 kmh 30.04 in1017.3 mb - 0.00 in0.0 mm 0.48 in12.2 mm
08:30 PM 61.8°F16.6°C 58.6°F14.8°C 89% 1.2 mph SSW1.9 kmh SSW 2.3 mph3.7 kmh 30.04 in1017.3 mb - 0.00 in0.0 mm 0.48 in12.2 mm
08:40 PM 61.2°F16.2°C 58.6°F14.8°C 91% 2.3 mph SW3.7 kmh SW 2.3 mph3.7 kmh 30.04 in1017.3 mb - 0.00 in0.0 mm 0.48 in12.2 mm
08:50 PM 60.8°F16.0°C 58.5°F14.7°C 92% 2.3 mph SW3.7 kmh SW 2.3 mph3.7 kmh 30.03 in1016.9 mb - 0.00 in0.0 mm 0.48 in12.2 mm
09:00 PM 60.2°F15.7°C 58.1°F14.5°C 93% 1.2 mph S1.9 kmh S -- 30.03 in1016.9 mb - 0.00 in0.0 mm 0.48 in12.2 mm
09:10 PM 59.7°F15.4°C 58.2°F14.6°C 95% Calm Calm 2.3 mph3.7 kmh 30.03 in1016.9 mb - 0.00 in0.0 mm 0.48 in12.2 mm
09:20 PM 59.2°F15.1°C 58.1°F14.5°C 96% Calm Calm 2.3 mph3.7 kmh 30.03 in1016.9 mb - 0.00 in0.0 mm 0.48 in12.2 mm
09:30 PM 59.0°F15.0°C 57.8°F14.3°C 96% Calm Calm -- 30.03 in1016.9 mb - 0.00 in0.0 mm 0.48 in12.2 mm
09:40 PM 58.4°F14.7°C 57.6°F14.2°C 97% 1.2 mph SE1.9 kmh SE 1.2 mph1.9 kmh 30.02 in1016.6 mb - 0.00 in0.0 mm 0.48 in12.2 mm
09:50 PM 58.0°F14.4°C 57.1°F13.9°C 97% Calm Calm -- 30.02 in1016.6 mb - 0.00 in0.0 mm 0.48 in12.2 mm
10:00 PM 57.9°F14.4°C 57.0°F13.9°C 97% 2.3 mph SW3.7 kmh SW 2.3 mph3.7 kmh 30.02 in1016.6 mb - 0.00 in0.0 mm 0.48 in12.2 mm
10:10 PM 57.7°F14.3°C 56.8°F13.8°C 97% Calm Calm -- 30.01 in1016.3 mb - 0.00 in0.0 mm 0.48 in12.2 mm
10:20 PM 57.7°F14.3°C 56.9°F13.8°C 97% 1.2 mph S1.9 kmh S 2.3 mph3.7 kmh 30.00 in1015.9 mb - 0.00 in0.0 mm 0.48 in12.2 mm
10:30 PM 57.5°F14.2°C 56.6°F13.7°C 97% 1.2 mph NW1.9 kmh NW 2.3 mph3.7 kmh 30.00 in1015.9 mb - 0.00 in0.0 mm 0.48 in12.2 mm
10:40 PM 57.3°F14.1°C 56.4°F13.6°C 97% 1.2 mph W1.9 kmh W 2.3 mph3.7 kmh 30.00 in1015.9 mb - 0.00 in0.0 mm 0.48 in12.2 mm
10:50 PM 57.0°F13.9°C 56.1°F13.4°C 97% 2.3 mph NW3.7 kmh NW 2.3 mph3.7 kmh 30.00 in1015.9 mb - 0.00 in0.0 mm 0.48 in12.2 mm
11:00 PM 56.1°F13.4°C 55.2°F12.9°C 97% Calm Calm -- 30.00 in1015.9 mb - 0.00 in0.0 mm 2.71 in68.8 mm
11:10 PM 55.1°F12.8°C 54.3°F12.4°C 97% Calm Calm -- 29.99 in1015.6 mb - 0.00 in0.0 mm 2.71 in68.8 mm
11:20 PM 54.4°F12.4°C 53.6°F12.0°C 97% Calm Calm -- 30.00 in1015.9 mb - 0.00 in0.0 mm 2.71 in68.8 mm
11:30 PM 53.8°F12.1°C 52.9°F11.6°C 97% Calm Calm -- 30.00 in1015.9 mb - 0.00 in0.0 mm 2.71 in68.8 mm
11:40 PM 53.3°F11.8°C 52.4°F11.3°C 97% Calm Calm -- 30.00 in1015.9 mb - 0.00 in0.0 mm 2.71 in68.8 mm
11:50 PM 53.2°F11.8°C 52.3°F11.3°C 97% Calm Calm -- 30.00 in1015.9 mb - 0.00 in0.0 mm 2.71 in68.8 mm